sensor_id;sensor_type;location;lat;lon;timestamp;temperature;humidity
24468;DHT22;12634;50.852;5.676;2023-07-20T00:02:11;16.30;99.90
24468;DHT22;12634;50.852;5.676;2023-07-20T00:04:38;16.20;99.90
24468;DHT22;12634;50.852;5.676;2023-07-20T00:07:05;16.30;99.90
24468;DHT22;12634;50.852;5.676;2023-07-20T00:09:33;16.30;99.90
24468;DHT22;12634;50.852;5.676;2023-07-20T00:12:01;16.30;99.90
24468;DHT22;12634;50.852;5.676;2023-07-20T00:14:28;16.30;99.90
24468;DHT22;12634;50.852;5.676;2023-07-20T00:16:57;16.40;99.90
24468;DHT22;12634;50.852;5.676;2023-07-20T00:19:25;16.40;99.90
24468;DHT22;12634;50.852;5.676;2023-07-20T00:21:52;16.40;99.90
24468;DHT22;12634;50.852;5.676;2023-07-20T00:24:20;16.30;99.90
24468;DHT22;12634;50.852;5.676;2023-07-20T00:26:47;16.30;99.90
24468;DHT22;12634;50.852;5.676;2023-07-20T00:29:16;16.10;99.90
24468;DHT22;12634;50.852;5.676;2023-07-20T00:31:43;16.10;99.90
24468;DHT22;12634;50.852;5.676;2023-07-20T00:34:10;16.10;99.90
24468;DHT22;12634;50.852;5.676;2023-07-20T00:36:37;16.10;99.90
24468;DHT22;12634;50.852;5.676;2023-07-20T00:39:05;16.00;99.90
24468;DHT22;12634;50.852;5.676;2023-07-20T00:41:32;16.00;99.90
24468;DHT22;12634;50.852;5.676;2023-07-20T00:43:59;16.00;99.90
24468;DHT22;12634;50.852;5.676;2023-07-20T00:46:28;16.00;99.90
24468;DHT22;12634;50.852;5.676;2023-07-20T00:48:55;16.00;99.90
24468;DHT22;12634;50.852;5.676;2023-07-20T00:51:23;15.90;99.90
24468;DHT22;12634;50.852;5.676;2023-07-20T00:53:52;15.90;99.90
24468;DHT22;12634;50.852;5.676;2023-07-20T00:56:19;15.90;99.90
24468;DHT22;12634;50.852;5.676;2023-07-20T00:58:46;15.90;99.90
24468;DHT22;12634;50.852;5.676;2023-07-20T01:01:14;15.90;99.90
24468;DHT22;12634;50.852;5.676;2023-07-20T01:03:43;15.80;99.90
24468;DHT22;12634;50.852;5.676;2023-07-20T01:06:18;15.90;99.90
24468;DHT22;12634;50.852;5.676;2023-07-20T01:08:54;15.80;99.90
24468;DHT22;12634;50.852;5.676;2023-07-20T01:11:31;15.80;99.90
24468;DHT22;12634;50.852;5.676;2023-07-20T01:14:00;15.80;99.90
24468;DHT22;12634;50.852;5.676;2023-07-20T01:16:28;15.80;99.90
24468;DHT22;12634;50.852;5.676;2023-07-20T01:18:56;15.70;99.90
24468;DHT22;12634;50.852;5.676;2023-07-20T01:21:28;15.70;99.90
24468;DHT22;12634;50.852;5.676;2023-07-20T01:30:35;15.70;99.90
24468;DHT22;12634;50.852;5.676;2023-07-20T01:33:08;15.70;99.90
24468;DHT22;12634;50.852;5.676;2023-07-20T01:35:36;15.70;99.90
24468;DHT22;12634;50.852;5.676;2023-07-20T01:38:05;15.70;99.90
24468;DHT22;12634;50.852;5.676;2023-07-20T01:40:33;15.70;99.90
24468;DHT22;12634;50.852;5.676;2023-07-20T01:43:02;15.70;99.90
24468;DHT22;12634;50.852;5.676;2023-07-20T01:45:29;15.70;99.90
24468;DHT22;12634;50.852;5.676;2023-07-20T01:47:56;15.70;99.90
24468;DHT22;12634;50.852;5.676;2023-07-20T01:50:25;15.70;99.90
24468;DHT22;12634;50.852;5.676;2023-07-20T01:52:52;15.80;99.90
24468;DHT22;12634;50.852;5.676;2023-07-20T01:55:19;15.80;99.90
24468;DHT22;12634;50.852;5.676;2023-07-20T01:57:46;15.80;99.90
24468;DHT22;12634;50.852;5.676;2023-07-20T02:00:14;15.70;99.90
24468;DHT22;12634;50.852;5.676;2023-07-20T02:02:41;15.70;99.90
24468;DHT22;12634;50.852;5.676;2023-07-20T02:05:09;15.80;99.90
24468;DHT22;12634;50.852;5.676;2023-07-20T02:07:37;15.80;99.90
24468;DHT22;12634;50.852;5.676;2023-07-20T02:10:06;15.70;99.90
24468;DHT22;12634;50.852;5.676;2023-07-20T02:12:33;15.80;99.90
24468;DHT22;12634;50.852;5.676;2023-07-20T02:15:00;15.70;99.90
24468;DHT22;12634;50.852;5.676;2023-07-20T02:17:28;15.80;99.90
24468;DHT22;12634;50.852;5.676;2023-07-20T02:19:56;15.80;99.90
24468;DHT22;12634;50.852;5.676;2023-07-20T02:22:23;15.80;99.90
24468;DHT22;12634;50.852;5.676;2023-07-20T02:24:52;15.70;99.90
24468;DHT22;12634;50.852;5.676;2023-07-20T02:27:19;15.60;99.90
24468;DHT22;12634;50.852;5.676;2023-07-20T02:29:46;15.70;99.90
24468;DHT22;12634;50.852;5.676;2023-07-20T02:32:13;15.60;99.90
24468;DHT22;12634;50.852;5.676;2023-07-20T02:34:40;15.60;99.90
24468;DHT22;12634;50.852;5.676;2023-07-20T02:37:07;15.60;99.90
24468;DHT22;12634;50.852;5.676;2023-07-20T02:39:35;15.50;99.90
24468;DHT22;12634;50.852;5.676;2023-07-20T02:42:03;15.50;99.90
24468;DHT22;12634;50.852;5.676;2023-07-20T02:44:31;15.50;99.90
24468;DHT22;12634;50.852;5.676;2023-07-20T02:46:58;15.50;99.90
24468;DHT22;12634;50.852;5.676;2023-07-20T02:49:25;15.50;99.90
24468;DHT22;12634;50.852;5.676;2023-07-20T02:51:52;15.40;99.90
24468;DHT22;12634;50.852;5.676;2023-07-20T02:54:20;15.40;99.90
24468;DHT22;12634;50.852;5.676;2023-07-20T02:56:47;15.30;99.90
24468;DHT22;12634;50.852;5.676;2023-07-20T02:59:16;15.30;99.90
24468;DHT22;12634;50.852;5.676;2023-07-20T03:01:44;15.30;99.90
24468;DHT22;12634;50.852;5.676;2023-07-20T03:04:11;15.30;99.90
24468;DHT22;12634;50.852;5.676;2023-07-20T03:06:38;15.40;99.90
24468;DHT22;12634;50.852;5.676;2023-07-20T03:09:05;15.40;99.90
24468;DHT22;12634;50.852;5.676;2023-07-20T03:11:33;15.50;99.90
24468;DHT22;12634;50.852;5.676;2023-07-20T03:14:00;15.50;99.90
24468;DHT22;12634;50.852;5.676;2023-07-20T03:16:29;15.50;99.90
24468;DHT22;12634;50.852;5.676;2023-07-20T03:18:56;15.50;99.90
24468;DHT22;12634;50.852;5.676;2023-07-20T03:21:23;15.50;99.90
24468;DHT22;12634;50.852;5.676;2023-07-20T03:23:50;15.40;99.90
24468;DHT22;12634;50.852;5.676;2023-07-20T03:26:17;15.40;99.90
24468;DHT22;12634;50.852;5.676;2023-07-20T03:28:44;15.50;99.90
24468;DHT22;12634;50.852;5.676;2023-07-20T03:31:11;15.50;99.90
24468;DHT22;12634;50.852;5.676;2023-07-20T03:33:41;15.60;99.90
24468;DHT22;12634;50.852;5.676;2023-07-20T03:36:09;15.50;99.90
24468;DHT22;12634;50.852;5.676;2023-07-20T03:38:36;15.60;99.90
24468;DHT22;12634;50.852;5.676;2023-07-20T03:41:03;15.60;99.90
24468;DHT22;12634;50.852;5.676;2023-07-20T03:43:30;15.60;99.90
24468;DHT22;12634;50.852;5.676;2023-07-20T03:45:57;15.60;99.90
24468;DHT22;12634;50.852;5.676;2023-07-20T03:48:25;15.60;99.90
24468;DHT22;12634;50.852;5.676;2023-07-20T03:50:54;15.60;99.90
24468;DHT22;12634;50.852;5.676;2023-07-20T03:53:21;15.70;99.90
24468;DHT22;12634;50.852;5.676;2023-07-20T03:55:49;15.70;99.90
24468;DHT22;12634;50.852;5.676;2023-07-20T03:58:16;15.70;99.90
24468;DHT22;12634;50.852;5.676;2023-07-20T04:00:45;15.70;99.90
24468;DHT22;12634;50.852;5.676;2023-07-20T04:03:12;15.70;99.90
24468;DHT22;12634;50.852;5.676;2023-07-20T04:05:40;15.70;99.90
24468;DHT22;12634;50.852;5.676;2023-07-20T04:08:09;15.70;99.90
24468;DHT22;12634;50.852;5.676;2023-07-20T04:10:36;15.70;99.90
24468;DHT22;12634;50.852;5.676;2023-07-20T04:13:04;15.70;99.90
24468;DHT22;12634;50.852;5.676;2023-07-20T04:15:32;15.70;99.90
24468;DHT22;12634;50.852;5.676;2023-07-20T04:17:59;15.80;99.90
24468;DHT22;12634;50.852;5.676;2023-07-20T04:20:26;15.70;99.90
24468;DHT22;12634;50.852;5.676;2023-07-20T04:22:53;15.70;99.90
24468;DHT22;12634;50.852;5.676;2023-07-20T04:25:22;15.70;99.90
24468;DHT22;12634;50.852;5.676;2023-07-20T04:27:49;15.80;99.90
24468;DHT22;12634;50.852;5.676;2023-07-20T04:30:17;15.80;99.90
24468;DHT22;12634;50.852;5.676;2023-07-20T04:32:47;15.80;99.90
24468;DHT22;12634;50.852;5.676;2023-07-20T04:35:17;15.80;99.90
24468;DHT22;12634;50.852;5.676;2023-07-20T04:37:44;15.80;99.90
24468;DHT22;12634;50.852;5.676;2023-07-20T04:40:12;15.80;99.90
24468;DHT22;12634;50.852;5.676;2023-07-20T04:42:41;15.80;99.90
24468;DHT22;12634;50.852;5.676;2023-07-20T04:45:09;15.80;99.90
24468;DHT22;12634;50.852;5.676;2023-07-20T04:47:36;15.80;99.90
24468;DHT22;12634;50.852;5.676;2023-07-20T04:50:04;15.80;99.90
24468;DHT22;12634;50.852;5.676;2023-07-20T04:52:31;15.80;99.90
24468;DHT22;12634;50.852;5.676;2023-07-20T04:54:59;15.90;99.90
24468;DHT22;12634;50.852;5.676;2023-07-20T04:57:26;15.90;99.90
24468;DHT22;12634;50.852;5.676;2023-07-20T04:59:54;15.90;99.90
24468;DHT22;12634;50.852;5.676;2023-07-20T05:02:22;15.90;99.90
24468;DHT22;12634;50.852;5.676;2023-07-20T05:04:49;16.00;99.90
24468;DHT22;12634;50.852;5.676;2023-07-20T05:07:16;16.00;99.90
24468;DHT22;12634;50.852;5.676;2023-07-20T05:09:43;16.00;99.90
24468;DHT22;12634;50.852;5.676;2023-07-20T05:12:10;16.00;99.90
24468;DHT22;12634;50.852;5.676;2023-07-20T05:14:38;16.10;99.90
24468;DHT22;12634;50.852;5.676;2023-07-20T05:17:08;16.10;99.90
24468;DHT22;12634;50.852;5.676;2023-07-20T05:19:36;16.10;99.90
24468;DHT22;12634;50.852;5.676;2023-07-20T05:22:03;16.10;99.90
24468;DHT22;12634;50.852;5.676;2023-07-20T05:24:31;16.10;99.90
24468;DHT22;12634;50.852;5.676;2023-07-20T05:26:58;16.10;99.90
24468;DHT22;12634;50.852;5.676;2023-07-20T05:29:25;16.10;99.90
24468;DHT22;12634;50.852;5.676;2023-07-20T05:31:53;16.10;99.90
24468;DHT22;12634;50.852;5.676;2023-07-20T05:34:21;16.10;99.90
24468;DHT22;12634;50.852;5.676;2023-07-20T05:36:49;16.20;99.90
24468;DHT22;12634;50.852;5.676;2023-07-20T05:39:17;16.20;99.90
24468;DHT22;12634;50.852;5.676;2023-07-20T05:41:44;16.20;99.90
24468;DHT22;12634;50.852;5.676;2023-07-20T05:44:11;16.30;99.90
24468;DHT22;12634;50.852;5.676;2023-07-20T05:46:38;16.40;99.90
24468;DHT22;12634;50.852;5.676;2023-07-20T05:49:05;16.40;99.90
24468;DHT22;12634;50.852;5.676;2023-07-20T05:51:34;16.50;99.90
24468;DHT22;12634;50.852;5.676;2023-07-20T05:54:02;16.60;99.90
24468;DHT22;12634;50.852;5.676;2023-07-20T05:56:29;16.70;99.90
24468;DHT22;12634;50.852;5.676;2023-07-20T05:58:56;16.80;99.90
24468;DHT22;12634;50.852;5.676;2023-07-20T06:01:23;16.80;99.90
24468;DHT22;12634;50.852;5.676;2023-07-20T06:03:53;16.80;99.90
24468;DHT22;12634;50.852;5.676;2023-07-20T06:06:20;17.00;99.90
24468;DHT22;12634;50.852;5.676;2023-07-20T06:08:48;17.20;99.90
24468;DHT22;12634;50.852;5.676;2023-07-20T06:11:15;17.00;99.90
24468;DHT22;12634;50.852;5.676;2023-07-20T06:13:43;17.10;99.90
24468;DHT22;12634;50.852;5.676;2023-07-20T06:16:10;17.20;99.90
24468;DHT22;12634;50.852;5.676;2023-07-20T06:18:37;17.20;99.90
24468;DHT22;12634;50.852;5.676;2023-07-20T06:21:04;17.30;99.90
24468;DHT22;12634;50.852;5.676;2023-07-20T06:23:31;17.60;99.90
24468;DHT22;12634;50.852;5.676;2023-07-20T06:26:00;18.10;99.90
24468;DHT22;12634;50.852;5.676;2023-07-20T06:28:27;18.80;99.90
24468;DHT22;12634;50.852;5.676;2023-07-20T06:30:59;19.20;99.90
24468;DHT22;12634;50.852;5.676;2023-07-20T06:33:30;19.40;99.90
24468;DHT22;12634;50.852;5.676;2023-07-20T06:35:57;19.50;99.90
24468;DHT22;12634;50.852;5.676;2023-07-20T06:38:25;19.10;99.90
24468;DHT22;12634;50.852;5.676;2023-07-20T06:40:52;18.70;99.90
24468;DHT22;12634;50.852;5.676;2023-07-20T06:43:21;19.30;99.90
24468;DHT22;12634;50.852;5.676;2023-07-20T06:45:51;20.10;99.90
24468;DHT22;12634;50.852;5.676;2023-07-20T06:48:19;20.20;99.90
24468;DHT22;12634;50.852;5.676;2023-07-20T06:50:47;20.20;99.90
24468;DHT22;12634;50.852;5.676;2023-07-20T06:53:14;19.60;99.90
24468;DHT22;12634;50.852;5.676;2023-07-20T06:55:42;19.50;99.90
24468;DHT22;12634;50.852;5.676;2023-07-20T06:58:09;19.70;99.90
24468;DHT22;12634;50.852;5.676;2023-07-20T07:00:38;20.10;99.90
24468;DHT22;12634;50.852;5.676;2023-07-20T07:03:05;20.50;99.90
24468;DHT22;12634;50.852;5.676;2023-07-20T07:05:36;20.20;99.90
24468;DHT22;12634;50.852;5.676;2023-07-20T07:08:04;19.60;99.90
24468;DHT22;12634;50.852;5.676;2023-07-20T07:10:31;19.60;99.90
24468;DHT22;12634;50.852;5.676;2023-07-20T07:12:59;20.20;99.90
24468;DHT22;12634;50.852;5.676;2023-07-20T07:15:26;20.90;99.90
24468;DHT22;12634;50.852;5.676;2023-07-20T07:17:55;20.00;99.90
24468;DHT22;12634;50.852;5.676;2023-07-20T07:20:22;20.00;99.90
24468;DHT22;12634;50.852;5.676;2023-07-20T07:22:50;19.90;99.90
24468;DHT22;12634;50.852;5.676;2023-07-20T07:25:18;19.80;99.90
24468;DHT22;12634;50.852;5.676;2023-07-20T07:27:46;20.20;99.90
24468;DHT22;12634;50.852;5.676;2023-07-20T07:30:13;20.20;99.90
24468;DHT22;12634;50.852;5.676;2023-07-20T07:32:40;20.40;99.90
24468;DHT22;12634;50.852;5.676;2023-07-20T07:35:09;20.40;99.90
24468;DHT22;12634;50.852;5.676;2023-07-20T07:37:37;20.00;99.90
24468;DHT22;12634;50.852;5.676;2023-07-20T07:40:05;19.80;99.90
24468;DHT22;12634;50.852;5.676;2023-07-20T07:42:34;19.80;99.90
24468;DHT22;12634;50.852;5.676;2023-07-20T07:45:01;20.30;99.90
24468;DHT22;12634;50.852;5.676;2023-07-20T07:47:28;20.80;99.90
24468;DHT22;12634;50.852;5.676;2023-07-20T07:49:55;20.90;99.90
24468;DHT22;12634;50.852;5.676;2023-07-20T07:52:24;20.70;99.90
24468;DHT22;12634;50.852;5.676;2023-07-20T07:54:51;20.30;99.90
24468;DHT22;12634;50.852;5.676;2023-07-20T07:57:19;20.70;99.90
24468;DHT22;12634;50.852;5.676;2023-07-20T07:59:46;20.50;99.90
24468;DHT22;12634;50.852;5.676;2023-07-20T08:02:13;20.70;99.90
24468;DHT22;12634;50.852;5.676;2023-07-20T08:04:40;21.10;99.90
24468;DHT22;12634;50.852;5.676;2023-07-20T08:07:07;21.60;99.90
24468;DHT22;12634;50.852;5.676;2023-07-20T08:09:36;22.10;99.90
24468;DHT22;12634;50.852;5.676;2023-07-20T08:12:04;22.20;99.90
24468;DHT22;12634;50.852;5.676;2023-07-20T08:14:31;21.60;99.90
24468;DHT22;12634;50.852;5.676;2023-07-20T08:16:58;20.50;99.90
24468;DHT22;12634;50.852;5.676;2023-07-20T08:19:26;21.00;99.90
24468;DHT22;12634;50.852;5.676;2023-07-20T08:21:53;20.90;99.90
24468;DHT22;12634;50.852;5.676;2023-07-20T08:24:20;21.10;99.90
24468;DHT22;12634;50.852;5.676;2023-07-20T08:26:49;21.20;99.90
24468;DHT22;12634;50.852;5.676;2023-07-20T08:29:16;21.50;99.90
24468;DHT22;12634;50.852;5.676;2023-07-20T08:31:43;21.30;99.90
24468;DHT22;12634;50.852;5.676;2023-07-20T08:34:11;21.50;99.90
24468;DHT22;12634;50.852;5.676;2023-07-20T08:36:38;21.30;99.90
24468;DHT22;12634;50.852;5.676;2023-07-20T08:39:06;20.70;99.90
24468;DHT22;12634;50.852;5.676;2023-07-20T08:41:34;20.20;99.90
24468;DHT22;12634;50.852;5.676;2023-07-20T08:44:03;20.30;99.90
24468;DHT22;12634;50.852;5.676;2023-07-20T08:46:30;20.40;99.90
24468;DHT22;12634;50.852;5.676;2023-07-20T08:48:58;20.40;99.90
24468;DHT22;12634;50.852;5.676;2023-07-20T08:51:29;20.90;99.90
24468;DHT22;12634;50.852;5.676;2023-07-20T08:53:57;20.90;99.90
24468;DHT22;12634;50.852;5.676;2023-07-20T08:56:25;21.20;99.90
24468;DHT22;12634;50.852;5.676;2023-07-20T08:58:53;20.80;99.90
24468;DHT22;12634;50.852;5.676;2023-07-20T09:01:22;21.20;99.90
24468;DHT22;12634;50.852;5.676;2023-07-20T09:03:50;20.30;99.90
24468;DHT22;12634;50.852;5.676;2023-07-20T09:06:17;21.10;99.90
24468;DHT22;12634;50.852;5.676;2023-07-20T09:08:45;21.70;99.90
24468;DHT22;12634;50.852;5.676;2023-07-20T09:11:12;21.60;99.90
24468;DHT22;12634;50.852;5.676;2023-07-20T09:13:40;21.50;99.90
24468;DHT22;12634;50.852;5.676;2023-07-20T09:16:09;21.60;99.90
24468;DHT22;12634;50.852;5.676;2023-07-20T09:18:41;21.80;99.90
24468;DHT22;12634;50.852;5.676;2023-07-20T09:21:09;21.10;99.90
24468;DHT22;12634;50.852;5.676;2023-07-20T09:23:37;21.40;99.90
24468;DHT22;12634;50.852;5.676;2023-07-20T09:26:10;21.80;99.90
24468;DHT22;12634;50.852;5.676;2023-07-20T09:28:42;21.80;99.90
24468;DHT22;12634;50.852;5.676;2023-07-20T09:31:16;22.40;99.90
24468;DHT22;12634;50.852;5.676;2023-07-20T09:33:45;23.30;99.90
24468;DHT22;12634;50.852;5.676;2023-07-20T09:36:12;23.50;99.90
24468;DHT22;12634;50.852;5.676;2023-07-20T09:38:41;23.50;99.90
24468;DHT22;12634;50.852;5.676;2023-07-20T09:41:12;23.10;99.90
24468;DHT22;12634;50.852;5.676;2023-07-20T09:43:40;22.90;99.90
24468;DHT22;12634;50.852;5.676;2023-07-20T09:46:07;23.30;99.90
24468;DHT22;12634;50.852;5.676;2023-07-20T09:48:34;23.20;99.90
24468;DHT22;12634;50.852;5.676;2023-07-20T09:51:03;23.10;99.90
24468;DHT22;12634;50.852;5.676;2023-07-20T09:53:33;23.90;99.90
24468;DHT22;12634;50.852;5.676;2023-07-20T09:56:00;23.70;99.90
24468;DHT22;12634;50.852;5.676;2023-07-20T09:58:29;23.90;99.90
24468;DHT22;12634;50.852;5.676;2023-07-20T10:00:57;23.80;99.90
24468;DHT22;12634;50.852;5.676;2023-07-20T10:03:29;24.10;99.90
24468;DHT22;12634;50.852;5.676;2023-07-20T10:06:00;23.00;99.90
24468;DHT22;12634;50.852;5.676;2023-07-20T10:08:33;23.80;99.90
24468;DHT22;12634;50.852;5.676;2023-07-20T10:11:02;23.20;99.90
24468;DHT22;12634;50.852;5.676;2023-07-20T10:13:30;23.30;99.90
24468;DHT22;12634;50.852;5.676;2023-07-20T10:16:02;24.50;99.90
24468;DHT22;12634;50.852;5.676;2023-07-20T10:18:33;24.40;99.90
24468;DHT22;12634;50.852;5.676;2023-07-20T10:21:02;23.00;99.90
24468;DHT22;12634;50.852;5.676;2023-07-20T10:23:33;22.70;99.90
24468;DHT22;12634;50.852;5.676;2023-07-20T10:26:01;23.40;99.90
24468;DHT22;12634;50.852;5.676;2023-07-20T10:28:28;23.10;99.90
24468;DHT22;12634;50.852;5.676;2023-07-20T10:30:56;24.00;99.90
24468;DHT22;12634;50.852;5.676;2023-07-20T10:33:24;24.50;99.90
24468;DHT22;12634;50.852;5.676;2023-07-20T10:35:52;24.50;99.90
24468;DHT22;12634;50.852;5.676;2023-07-20T10:38:19;24.70;99.90
24468;DHT22;12634;50.852;5.676;2023-07-20T10:40:55;24.40;99.90
24468;DHT22;12634;50.852;5.676;2023-07-20T10:43:23;24.70;99.90
24468;DHT22;12634;50.852;5.676;2023-07-20T10:45:52;24.10;99.90
24468;DHT22;12634;50.852;5.676;2023-07-20T10:48:21;24.50;99.90
24468;DHT22;12634;50.852;5.676;2023-07-20T10:51:13;24.90;99.90
24468;DHT22;12634;50.852;5.676;2023-07-20T10:53:41;23.70;99.90
24468;DHT22;12634;50.852;5.676;2023-07-20T10:56:12;24.30;99.90
24468;DHT22;12634;50.852;5.676;2023-07-20T10:58:40;23.90;99.90
24468;DHT22;12634;50.852;5.676;2023-07-20T11:01:08;24.00;99.90
24468;DHT22;12634;50.852;5.676;2023-07-20T11:03:40;23.60;99.90
24468;DHT22;12634;50.852;5.676;2023-07-20T11:06:32;23.60;99.90
24468;DHT22;12634;50.852;5.676;2023-07-20T11:09:10;23.70;99.90
24468;DHT22;12634;50.852;5.676;2023-07-20T11:11:42;24.40;99.90
24468;DHT22;12634;50.852;5.676;2023-07-20T11:14:11;24.00;99.90
24468;DHT22;12634;50.852;5.676;2023-07-20T11:16:48;25.10;99.90
24468;DHT22;12634;50.852;5.676;2023-07-20T11:19:18;25.70;99.90
24468;DHT22;12634;50.852;5.676;2023-07-20T11:21:47;25.90;99.90
24468;DHT22;12634;50.852;5.676;2023-07-20T11:24:18;24.60;99.90
24468;DHT22;12634;50.852;5.676;2023-07-20T11:26:48;24.00;99.90
24468;DHT22;12634;50.852;5.676;2023-07-20T11:29:16;24.60;99.90
24468;DHT22;12634;50.852;5.676;2023-07-20T11:31:45;24.30;99.90
24468;DHT22;12634;50.852;5.676;2023-07-20T11:34:14;24.50;99.90
24468;DHT22;12634;50.852;5.676;2023-07-20T11:36:44;25.60;99.90
24468;DHT22;12634;50.852;5.676;2023-07-20T11:39:14;26.20;99.90
24468;DHT22;12634;50.852;5.676;2023-07-20T11:41:46;25.80;99.90
24468;DHT22;12634;50.852;5.676;2023-07-20T11:44:15;25.20;99.90
24468;DHT22;12634;50.852;5.676;2023-07-20T11:46:43;25.10;99.90
24468;DHT22;12634;50.852;5.676;2023-07-20T11:49:11;26.10;99.90
24468;DHT22;12634;50.852;5.676;2023-07-20T11:51:40;25.90;99.90
24468;DHT22;12634;50.852;5.676;2023-07-20T11:54:08;25.60;99.90
24468;DHT22;12634;50.852;5.676;2023-07-20T11:56:36;24.60;99.90
24468;DHT22;12634;50.852;5.676;2023-07-20T11:59:03;23.70;99.90
24468;DHT22;12634;50.852;5.676;2023-07-20T12:01:32;24.10;99.90
24468;DHT22;12634;50.852;5.676;2023-07-20T12:04:01;25.70;99.90
24468;DHT22;12634;50.852;5.676;2023-07-20T12:06:29;25.30;99.90
24468;DHT22;12634;50.852;5.676;2023-07-20T12:08:59;25.00;99.90
24468;DHT22;12634;50.852;5.676;2023-07-20T12:11:33;25.20;99.90
24468;DHT22;12634;50.852;5.676;2023-07-20T12:14:02;26.20;99.90
24468;DHT22;12634;50.852;5.676;2023-07-20T12:16:31;26.90;99.90
24468;DHT22;12634;50.852;5.676;2023-07-20T12:19:02;26.30;99.90
24468;DHT22;12634;50.852;5.676;2023-07-20T12:21:29;25.90;99.90
24468;DHT22;12634;50.852;5.676;2023-07-20T12:23:58;25.10;99.90
24468;DHT22;12634;50.852;5.676;2023-07-20T12:26:25;25.10;99.90
24468;DHT22;12634;50.852;5.676;2023-07-20T12:28:53;25.10;99.90
24468;DHT22;12634;50.852;5.676;2023-07-20T12:31:21;26.00;99.90
24468;DHT22;12634;50.852;5.676;2023-07-20T12:33:51;27.10;99.90
24468;DHT22;12634;50.852;5.676;2023-07-20T12:36:18;27.10;98.10
24468;DHT22;12634;50.852;5.676;2023-07-20T12:38:45;27.30;98.10
24468;DHT22;12634;50.852;5.676;2023-07-20T12:41:13;27.10;99.50
24468;DHT22;12634;50.852;5.676;2023-07-20T12:43:40;26.30;98.00
24468;DHT22;12634;50.852;5.676;2023-07-20T12:46:08;26.70;98.00
24468;DHT22;12634;50.852;5.676;2023-07-20T12:48:36;26.50;97.00
24468;DHT22;12634;50.852;5.676;2023-07-20T12:51:05;26.30;97.90
24468;DHT22;12634;50.852;5.676;2023-07-20T12:53:33;26.40;99.50
24468;DHT22;12634;50.852;5.676;2023-07-20T12:56:00;26.80;97.10
24468;DHT22;12634;50.852;5.676;2023-07-20T12:58:27;27.00;98.40
24468;DHT22;12634;50.852;5.676;2023-07-20T13:00:55;26.90;99.90
24468;DHT22;12634;50.852;5.676;2023-07-20T13:03:22;26.10;99.90
24468;DHT22;12634;50.852;5.676;2023-07-20T13:05:49;26.40;99.90
24468;DHT22;12634;50.852;5.676;2023-07-20T13:08:18;26.50;99.90
24468;DHT22;12634;50.852;5.676;2023-07-20T13:10:46;27.40;98.90
24468;DHT22;12634;50.852;5.676;2023-07-20T13:13:13;27.70;97.50
24468;DHT22;12634;50.852;5.676;2023-07-20T13:15:42;27.30;97.60
24468;DHT22;12634;50.852;5.676;2023-07-20T13:18:09;26.60;96.80
24468;DHT22;12634;50.852;5.676;2023-07-20T13:20:37;27.00;98.90
24468;DHT22;12634;50.852;5.676;2023-07-20T13:23:04;27.80;97.90
24468;DHT22;12634;50.852;5.676;2023-07-20T13:25:33;28.00;93.10
24468;DHT22;12634;50.852;5.676;2023-07-20T13:28:00;28.50;95.50
24468;DHT22;12634;50.852;5.676;2023-07-20T13:30:28;27.80;91.80
24468;DHT22;12634;50.852;5.676;2023-07-20T13:32:55;27.90;87.10
24468;DHT22;12634;50.852;5.676;2023-07-20T13:35:22;28.90;92.30
24468;DHT22;12634;50.852;5.676;2023-07-20T13:37:49;29.10;92.70
24468;DHT22;12634;50.852;5.676;2023-07-20T13:40:17;29.30;91.80
24468;DHT22;12634;50.852;5.676;2023-07-20T13:42:46;29.20;88.80
24468;DHT22;12634;50.852;5.676;2023-07-20T13:45:14;29.00;91.60
24468;DHT22;12634;50.852;5.676;2023-07-20T13:47:41;27.60;90.90
24468;DHT22;12634;50.852;5.676;2023-07-20T13:50:08;27.10;94.50
24468;DHT22;12634;50.852;5.676;2023-07-20T13:52:36;26.10;95.30
24468;DHT22;12634;50.852;5.676;2023-07-20T13:55:04;25.90;95.20
24468;DHT22;12634;50.852;5.676;2023-07-20T13:57:31;25.80;97.20
24468;DHT22;12634;50.852;5.676;2023-07-20T14:00:00;26.50;98.70
24468;DHT22;12634;50.852;5.676;2023-07-20T14:02:28;28.10;92.50
24468;DHT22;12634;50.852;5.676;2023-07-20T14:04:55;28.80;92.40
24468;DHT22;12634;50.852;5.676;2023-07-20T14:07:22;30.10;90.50
24468;DHT22;12634;50.852;5.676;2023-07-20T14:09:49;30.40;88.70
24468;DHT22;12634;50.852;5.676;2023-07-20T14:12:17;29.80;87.40
24468;DHT22;12634;50.852;5.676;2023-07-20T14:14:44;29.30;83.00
24468;DHT22;12634;50.852;5.676;2023-07-20T14:17:12;28.20;84.40
24468;DHT22;12634;50.852;5.676;2023-07-20T14:19:39;27.10;87.70
24468;DHT22;12634;50.852;5.676;2023-07-20T14:22:06;26.10;92.90
24468;DHT22;12634;50.852;5.676;2023-07-20T14:24:34;25.90;95.80
24468;DHT22;12634;50.852;5.676;2023-07-20T14:27:01;26.30;95.00
24468;DHT22;12634;50.852;5.676;2023-07-20T14:29:28;27.40;94.00
24468;DHT22;12634;50.852;5.676;2023-07-20T14:31:58;28.10;91.70
24468;DHT22;12634;50.852;5.676;2023-07-20T14:34:26;28.80;91.20
24468;DHT22;12634;50.852;5.676;2023-07-20T14:36:53;29.00;89.80
24468;DHT22;12634;50.852;5.676;2023-07-20T14:39:21;29.20;90.40
24468;DHT22;12634;50.852;5.676;2023-07-20T14:41:50;29.60;89.50
24468;DHT22;12634;50.852;5.676;2023-07-20T14:44:17;29.40;90.10
24468;DHT22;12634;50.852;5.676;2023-07-20T14:46:46;29.30;89.40
24468;DHT22;12634;50.852;5.676;2023-07-20T14:49:13;28.90;89.90
24468;DHT22;12634;50.852;5.676;2023-07-20T14:51:42;28.90;90.30
24468;DHT22;12634;50.852;5.676;2023-07-20T14:54:12;29.20;91.60
24468;DHT22;12634;50.852;5.676;2023-07-20T14:56:46;28.90;86.90
24468;DHT22;12634;50.852;5.676;2023-07-20T14:59:15;29.90;86.60
24468;DHT22;12634;50.852;5.676;2023-07-20T15:01:43;30.50;81.70
24468;DHT22;12634;50.852;5.676;2023-07-20T15:04:11;30.30;81.30
24468;DHT22;12634;50.852;5.676;2023-07-20T15:06:38;29.60;85.10
24468;DHT22;12634;50.852;5.676;2023-07-20T15:09:07;29.30;86.20
24468;DHT22;12634;50.852;5.676;2023-07-20T15:11:36;29.40;86.80
24468;DHT22;12634;50.852;5.676;2023-07-20T15:14:03;28.80;83.60
24468;DHT22;12634;50.852;5.676;2023-07-20T15:16:30;28.10;88.20
24468;DHT22;12634;50.852;5.676;2023-07-20T15:18:57;28.10;90.50
24468;DHT22;12634;50.852;5.676;2023-07-20T15:21:24;28.50;86.40
24468;DHT22;12634;50.852;5.676;2023-07-20T15:23:56;27.80;85.60
24468;DHT22;12634;50.852;5.676;2023-07-20T15:26:24;27.10;90.30
24468;DHT22;12634;50.852;5.676;2023-07-20T15:28:52;27.10;89.00
24468;DHT22;12634;50.852;5.676;2023-07-20T15:31:19;26.60;91.10
24468;DHT22;12634;50.852;5.676;2023-07-20T15:33:46;26.00;94.30
24468;DHT22;12634;50.852;5.676;2023-07-20T15:36:13;25.40;93.80
24468;DHT22;12634;50.852;5.676;2023-07-20T15:38:41;25.00;94.20
24468;DHT22;12634;50.852;5.676;2023-07-20T15:41:08;25.20;96.00
24468;DHT22;12634;50.852;5.676;2023-07-20T15:43:37;25.00;96.10